createdAt,value
2019-03-31T00:01:30.363Z,12.80
2019-03-31T00:04:00.308Z,13.20
2019-03-31T00:06:30.247Z,13.07
2019-03-31T00:09:00.121Z,12.73
2019-03-31T00:11:30.035Z,12.37
2019-03-31T00:13:59.906Z,13.00
2019-03-31T00:16:29.771Z,12.83
2019-03-31T00:18:59.655Z,12.73
2019-03-31T00:21:29.601Z,12.97
2019-03-31T00:23:59.444Z,12.33
2019-03-31T00:26:29.416Z,12.63
2019-03-31T00:28:59.259Z,12.87
2019-03-31T00:31:29.140Z,13.40
2019-03-31T00:33:59.150Z,13.43
2019-03-31T00:36:29.162Z,12.83
2019-03-31T00:38:59.076Z,12.87
2019-03-31T00:41:28.945Z,13.07
2019-03-31T00:43:58.840Z,13.77
2019-03-31T00:46:28.777Z,13.80
2019-03-31T00:48:58.747Z,13.20
2019-03-31T00:51:28.688Z,13.30
2019-03-31T00:53:58.571Z,13.43
2019-03-31T00:56:28.585Z,13.57
2019-03-31T00:58:58.538Z,13.50
2019-03-31T01:01:37.194Z,13.57
2019-03-31T01:04:08.819Z,13.20
2019-03-31T01:06:39.807Z,13.00
2019-03-31T01:09:25.514Z,13.40
2019-03-31T01:11:56.147Z,14.37
2019-03-31T01:14:26.304Z,13.33
2019-03-31T01:16:57.419Z,13.47
2019-03-31T01:19:29.112Z,13.37
2019-03-31T01:21:58.955Z,13.57
2019-03-31T01:24:28.832Z,13.70
2019-03-31T01:26:58.689Z,13.83
2019-03-31T01:29:28.787Z,13.57
2019-03-31T01:31:58.847Z,13.40
2019-03-31T01:34:28.795Z,13.80
2019-03-31T01:36:58.734Z,14.03
2019-03-31T01:39:29.740Z,13.67
2019-03-31T01:41:59.692Z,13.43
2019-03-31T01:44:29.688Z,14.03
2019-03-31T01:46:59.566Z,13.87
2019-03-31T01:49:29.496Z,14.40
2019-03-31T01:51:59.524Z,13.27
2019-03-31T01:54:29.394Z,12.97
2019-03-31T01:56:59.255Z,14.23
2019-03-31T01:59:29.130Z,13.03
2019-03-31T02:02:04.454Z,14.53
2019-03-31T02:04:30.662Z,13.33
2019-03-31T02:07:00.594Z,13.53
2019-03-31T02:09:30.463Z,13.63
2019-03-31T02:12:00.485Z,13.20
2019-03-31T02:14:30.330Z,13.07
2019-03-31T02:17:00.281Z,14.10
2019-03-31T02:19:30.151Z,13.40
2019-03-31T02:22:00.081Z,12.70
2019-03-31T02:24:31.092Z,12.27
2019-03-31T02:27:01.233Z,13.40
2019-03-31T02:29:31.104Z,12.97
2019-03-31T02:32:01.040Z,12.37
2019-03-31T02:34:31.076Z,13.73
2019-03-31T02:37:00.998Z,12.97
2019-03-31T02:39:30.951Z,12.77
2019-03-31T02:42:01.231Z,12.83
2019-03-31T02:44:32.172Z,13.00
2019-03-31T02:47:02.109Z,12.67
2019-03-31T02:49:32.080Z,13.07
2019-03-31T02:52:02.162Z,13.13
2019-03-31T02:54:32.213Z,13.30
2019-03-31T02:57:02.216Z,12.17
2019-03-31T02:59:33.106Z,13.13
2019-03-31T03:02:03.202Z,12.83
2019-03-31T03:04:34.575Z,13.27
2019-03-31T03:07:04.572Z,12.40
2019-03-31T03:09:37.054Z,13.13
2019-03-31T03:12:09.501Z,13.60
2019-03-31T03:14:39.841Z,13.47
2019-03-31T03:17:09.761Z,14.00
2019-03-31T03:19:39.733Z,13.50
2019-03-31T03:22:09.693Z,13.23
2019-03-31T03:24:39.656Z,14.67
2019-03-31T03:27:09.595Z,14.67
2019-03-31T03:29:39.547Z,13.53
2019-03-31T03:32:09.497Z,13.53
2019-03-31T03:34:39.435Z,13.00
2019-03-31T03:37:09.448Z,13.90
2019-03-31T03:39:39.367Z,14.07
2019-03-31T03:42:09.318Z,13.97
2019-03-31T03:44:39.251Z,14.20
2019-03-31T03:47:09.168Z,13.93
2019-03-31T03:49:39.132Z,14.63
2019-03-31T03:52:08.988Z,14.70
2019-03-31T03:54:38.845Z,13.37
2019-03-31T03:57:08.730Z,13.73
2019-03-31T03:59:38.729Z,14.20
2019-03-31T04:02:08.693Z,14.33
2019-03-31T04:04:38.567Z,14.43
2019-03-31T04:07:08.444Z,14.00
2019-03-31T04:09:38.372Z,13.67
2019-03-31T04:12:08.315Z,14.93
2019-03-31T04:14:38.241Z,14.17
2019-03-31T04:17:08.202Z,15.00
2019-03-31T04:19:38.138Z,14.97
2019-03-31T04:22:08.085Z,13.87
2019-03-31T04:24:38.025Z,14.53
2019-03-31T04:27:07.961Z,14.87
2019-03-31T04:29:37.888Z,14.17
2019-03-31T04:32:07.756Z,14.43
2019-03-31T04:34:37.788Z,14.10
2019-03-31T04:37:07.764Z,14.23
2019-03-31T04:39:37.661Z,14.27
2019-03-31T04:42:07.589Z,13.63
2019-03-31T04:44:37.480Z,13.60
2019-03-31T04:47:07.375Z,14.63
2019-03-31T04:49:37.383Z,14.07
2019-03-31T04:52:07.329Z,14.23
2019-03-31T04:54:37.182Z,14.70
2019-03-31T04:57:07.135Z,14.70
2019-03-31T04:59:37.047Z,15.43
2019-03-31T05:02:06.985Z,14.07
2019-03-31T05:04:36.984Z,14.17
2019-03-31T05:07:07.013Z,13.93
2019-03-31T05:09:36.868Z,14.83
2019-03-31T05:12:06.743Z,13.93
2019-03-31T05:14:36.715Z,14.50
2019-03-31T05:17:06.945Z,13.90
2019-03-31T05:19:36.794Z,15.43
2019-03-31T05:22:06.746Z,14.00
2019-03-31T05:24:36.725Z,15.50
2019-03-31T05:27:06.635Z,14.53
2019-03-31T05:29:36.641Z,13.93
2019-03-31T05:32:06.587Z,13.87
2019-03-31T05:34:36.625Z,14.10
2019-03-31T05:37:06.484Z,13.03
2019-03-31T05:39:36.440Z,12.83
2019-03-31T05:42:06.360Z,12.33
2019-03-31T05:44:36.307Z,13.03
2019-03-31T05:47:06.179Z,12.77
2019-03-31T05:49:36.087Z,12.10
2019-03-31T05:52:06.029Z,12.67
2019-03-31T05:54:35.992Z,12.50
2019-03-31T05:57:05.949Z,12.40
2019-03-31T05:59:35.975Z,12.63
2019-03-31T06:02:06.144Z,11.83
2019-03-31T06:04:36.111Z,12.77
2019-03-31T06:07:06.045Z,13.57
2019-03-31T06:09:35.977Z,11.77
2019-03-31T06:12:05.974Z,12.17
2019-03-31T06:14:35.851Z,12.47
2019-03-31T06:17:05.819Z,12.33
2019-03-31T06:19:36.825Z,11.80
2019-03-31T06:22:06.775Z,12.70
2019-03-31T06:24:36.717Z,12.37
2019-03-31T06:27:06.780Z,13.03
2019-03-31T06:29:36.702Z,12.93
2019-03-31T06:32:06.642Z,11.97
2019-03-31T06:34:46.747Z,13.17
2019-03-31T06:37:08.068Z,13.43
2019-03-31T06:39:52.996Z,12.90
2019-03-31T06:42:30.601Z,13.30
2019-03-31T06:45:03.799Z,13.20
2019-03-31T06:47:33.822Z,13.20
2019-03-31T06:50:06.540Z,12.47
2019-03-31T06:52:36.407Z,12.90
2019-03-31T06:55:09.367Z,13.20
2019-03-31T06:57:40.303Z,12.90
2019-03-31T07:00:10.397Z,13.97
2019-03-31T07:02:40.337Z,13.70
2019-03-31T07:05:10.432Z,13.60
2019-03-31T07:07:40.361Z,14.10
2019-03-31T07:10:10.456Z,13.53
2019-03-31T07:12:40.465Z,13.33
2019-03-31T07:15:10.466Z,13.93
2019-03-31T07:17:40.418Z,13.90
2019-03-31T07:20:11.595Z,14.27
2019-03-31T07:22:41.554Z,14.50
2019-03-31T07:25:13.291Z,14.17
2019-03-31T07:27:43.259Z,14.27
2019-03-31T07:30:18.443Z,14.63
2019-03-31T07:32:48.442Z,15.13
2019-03-31T07:35:19.778Z,14.87
2019-03-31T07:37:49.701Z,15.07
2019-03-31T07:40:21.818Z,15.47
2019-03-31T07:42:51.826Z,14.47
2019-03-31T07:45:21.930Z,15.47
2019-03-31T07:47:51.866Z,15.43
2019-03-31T07:50:21.833Z,15.43
2019-03-31T07:52:51.776Z,15.17
2019-03-31T07:55:21.811Z,15.50
2019-03-31T07:57:54.437Z,15.03
2019-03-31T08:00:26.069Z,15.03
2019-03-31T08:02:55.939Z,15.53
2019-03-31T08:05:32.924Z,15.27
2019-03-31T08:07:57.469Z,15.20
2019-03-31T08:10:27.543Z,15.33
2019-03-31T08:12:57.472Z,15.47
2019-03-31T08:15:27.386Z,15.23
2019-03-31T08:17:58.407Z,15.20
2019-03-31T08:20:28.357Z,15.57
2019-03-31T08:22:58.264Z,14.67
2019-03-31T08:25:28.154Z,15.27
2019-03-31T08:27:58.009Z,15.33
2019-03-31T08:30:27.877Z,15.37
2019-03-31T08:32:57.744Z,15.60
2019-03-31T08:35:28.809Z,15.97
2019-03-31T08:37:58.762Z,15.47
2019-03-31T08:40:28.765Z,15.13
2019-03-31T08:42:58.726Z,14.20
2019-03-31T08:45:30.376Z,15.77
2019-03-31T08:48:00.240Z,15.90
2019-03-31T08:50:30.178Z,15.37
2019-03-31T08:53:00.078Z,14.67
2019-03-31T08:55:30.087Z,14.37
2019-03-31T08:58:00.085Z,15.57
2019-03-31T09:00:46.919Z,15.67
2019-03-31T09:03:16.833Z,16.00
2019-03-31T09:06:00.616Z,15.70
2019-03-31T09:08:18.300Z,14.50
2019-03-31T09:10:48.192Z,16.13
2019-03-31T09:13:18.123Z,14.70
2019-03-31T09:15:49.087Z,15.40
2019-03-31T09:18:19.018Z,14.33
2019-03-31T09:20:49.010Z,15.20
2019-03-31T09:23:19.027Z,17.00
2019-03-31T09:25:48.883Z,14.93
2019-03-31T09:28:20.094Z,15.50
2019-03-31T09:30:50.129Z,15.57
2019-03-31T09:33:20.052Z,16.13
2019-03-31T09:35:50.017Z,15.77
2019-03-31T09:38:19.971Z,15.90
2019-03-31T09:40:49.864Z,14.90
2019-03-31T09:43:19.734Z,15.60
2019-03-31T09:45:49.684Z,15.50
2019-03-31T09:48:19.560Z,15.30
2019-03-31T09:50:49.419Z,13.87
2019-03-31T09:53:19.308Z,15.03
2019-03-31T09:55:49.238Z,15.20
2019-03-31T09:58:19.111Z,14.33
2019-03-31T10:00:51.783Z,15.23
2019-03-31T10:03:22.013Z,14.57
2019-03-31T10:05:52.019Z,14.13
2019-03-31T10:08:22.451Z,13.50
2019-03-31T10:10:52.525Z,13.63
2019-03-31T10:13:22.469Z,13.73
2019-03-31T10:15:52.420Z,14.30
2019-03-31T10:18:22.341Z,14.30
2019-03-31T10:20:52.299Z,13.43
2019-03-31T10:23:23.000Z,13.30
2019-03-31T10:25:52.881Z,12.43
2019-03-31T10:28:22.761Z,13.03
2019-03-31T10:30:52.696Z,12.70
2019-03-31T10:33:22.647Z,12.05
2019-03-31T10:35:52.584Z,11.55
2019-03-31T10:38:22.480Z,11.80
2019-03-31T10:40:52.344Z,11.77
2019-03-31T10:43:23.290Z,10.63
2019-03-31T10:45:53.313Z,11.73
2019-03-31T10:48:23.177Z,12.60
2019-03-31T10:50:53.094Z,11.70
2019-03-31T10:53:23.065Z,11.88
2019-03-31T10:55:52.949Z,11.47
2019-03-31T10:58:22.873Z,10.68
2019-03-31T11:00:52.768Z,11.33
2019-03-31T11:03:22.701Z,11.68
2019-03-31T11:05:52.661Z,11.12
2019-03-31T11:08:22.610Z,10.32
2019-03-31T11:10:52.605Z,10.32
2019-03-31T11:13:22.500Z,11.35
2019-03-31T11:15:52.372Z,10.63
2019-03-31T11:18:22.317Z,10.98
2019-03-31T11:20:52.179Z,11.60
2019-03-31T11:23:26.602Z,10.90
2019-03-31T11:25:56.549Z,10.60
2019-03-31T11:28:26.424Z,10.78
2019-03-31T11:30:56.296Z,10.13
2019-03-31T11:33:26.334Z,11.25
2019-03-31T11:35:56.275Z,11.22
2019-03-31T11:38:27.288Z,11.88
2019-03-31T11:40:57.211Z,12.07
2019-03-31T11:43:27.135Z,9.90
2019-03-31T11:45:57.024Z,10.10
2019-03-31T11:48:26.905Z,9.40
2019-03-31T11:50:56.766Z,9.53
2019-03-31T11:53:26.708Z,9.80
2019-03-31T11:55:56.719Z,7.40
2019-03-31T11:58:26.672Z,7.87
2019-03-31T12:00:56.908Z,6.80
2019-03-31T12:03:26.852Z,6.73
2019-03-31T12:05:56.694Z,6.77
2019-03-31T12:08:26.560Z,7.23
2019-03-31T12:11:04.045Z,6.90
2019-03-31T12:13:33.903Z,6.40
2019-03-31T12:16:03.777Z,6.37
2019-03-31T12:18:46.465Z,6.20
2019-03-31T12:21:16.308Z,5.27
2019-03-31T12:23:46.179Z,5.60
2019-03-31T12:26:16.094Z,4.90
2019-03-31T12:29:05.372Z,4.90
2019-03-31T12:31:35.230Z,4.73
2019-03-31T12:34:05.174Z,4.60
2019-03-31T12:36:35.337Z,4.23
2019-03-31T12:39:07.977Z,4.73
2019-03-31T12:41:38.008Z,5.03
2019-03-31T12:44:07.951Z,4.40
2019-03-31T12:46:37.948Z,5.70
2019-03-31T12:49:07.904Z,4.63
2019-03-31T12:51:37.926Z,4.80
2019-03-31T12:54:07.861Z,4.50
2019-03-31T12:56:37.699Z,5.37
2019-03-31T12:59:07.634Z,5.30
2019-03-31T13:01:37.574Z,4.90
2019-03-31T13:04:07.507Z,4.63
2019-03-31T13:06:37.443Z,4.33
2019-03-31T13:09:09.087Z,4.57
2019-03-31T13:11:39.014Z,3.50
2019-03-31T13:14:09.015Z,3.70
2019-03-31T13:16:38.952Z,4.33
2019-03-31T13:19:08.895Z,3.50
2019-03-31T13:21:40.357Z,4.00
2019-03-31T13:24:10.232Z,5.40
2019-03-31T13:26:40.173Z,4.33
2019-03-31T13:29:10.274Z,4.20
2019-03-31T13:31:40.195Z,5.00
2019-03-31T13:34:10.101Z,5.03
2019-03-31T13:36:40.013Z,4.63
2019-03-31T13:39:10.007Z,4.97
2019-03-31T13:41:39.920Z,4.50
2019-03-31T13:44:09.780Z,4.80
2019-03-31T13:46:39.635Z,5.03
2019-03-31T13:49:09.497Z,4.87
2019-03-31T13:51:39.451Z,4.70
2019-03-31T13:54:09.313Z,6.77
2019-03-31T13:56:39.913Z,6.73
2019-03-31T13:59:09.983Z,7.10
2019-03-31T14:01:39.940Z,7.03
2019-03-31T14:04:09.784Z,6.80
2019-03-31T14:06:39.650Z,6.67
2019-03-31T14:09:09.946Z,6.17
2019-03-31T14:11:39.944Z,6.77
2019-03-31T14:14:09.857Z,7.10
2019-03-31T14:16:39.785Z,7.07
2019-03-31T14:19:12.910Z,5.93
2019-03-31T14:21:41.283Z,6.17
2019-03-31T14:24:11.227Z,6.53
2019-03-31T14:26:41.091Z,6.47
2019-03-31T14:29:10.936Z,5.90
2019-03-31T14:31:40.811Z,5.17
2019-03-31T14:34:10.745Z,5.87
2019-03-31T14:36:53.143Z,5.60
2019-03-31T14:39:23.090Z,5.57
2019-03-31T14:41:52.932Z,6.17
2019-03-31T14:44:22.977Z,6.40
2019-03-31T14:46:52.907Z,5.50
2019-03-31T14:49:26.045Z,6.33
2019-03-31T14:51:56.142Z,6.07
2019-03-31T14:54:26.113Z,5.63
2019-03-31T14:56:56.042Z,5.13
2019-03-31T14:59:25.972Z,6.53
2019-03-31T15:01:55.889Z,6.90
2019-03-31T15:04:25.819Z,6.93
2019-03-31T15:06:55.786Z,6.30
2019-03-31T15:09:26.227Z,6.13
2019-03-31T15:12:06.459Z,6.20
2019-03-31T15:14:39.456Z,6.77
2019-03-31T15:17:17.440Z,6.60
2019-03-31T15:19:48.980Z,6.30
2019-03-31T15:22:20.112Z,6.97
2019-03-31T15:24:50.483Z,7.13
2019-03-31T15:27:20.562Z,6.13
2019-03-31T15:29:50.480Z,6.00
2019-03-31T15:32:20.343Z,6.30
2019-03-31T15:34:50.220Z,7.47
2019-03-31T15:37:20.063Z,6.90
2019-03-31T15:39:49.958Z,7.23
2019-03-31T15:42:19.874Z,7.10
2019-03-31T15:44:49.799Z,7.17
2019-03-31T15:47:19.687Z,6.77
2019-03-31T15:49:49.580Z,12.27
2019-03-31T15:52:19.459Z,10.03
2019-03-31T15:54:49.312Z,7.80
2019-03-31T15:57:19.249Z,11.23
2019-03-31T15:59:52.946Z,7.23
2019-03-31T16:02:24.602Z,6.37
2019-03-31T16:04:54.616Z,19.50
2019-03-31T16:07:24.480Z,9.73
2019-03-31T16:09:55.567Z,8.70
2019-03-31T16:12:25.419Z,8.50
2019-03-31T16:14:55.267Z,9.17
2019-03-31T16:17:25.139Z,8.83
2019-03-31T16:19:55.013Z,10.57
2019-03-31T16:22:24.961Z,11.07
2019-03-31T16:24:59.207Z,10.87
2019-03-31T16:27:29.227Z,10.40
2019-03-31T16:30:00.829Z,9.87
2019-03-31T16:32:30.763Z,10.37
2019-03-31T16:35:00.657Z,10.60
2019-03-31T16:37:30.526Z,10.63
2019-03-31T16:40:00.414Z,10.53
2019-03-31T16:42:30.348Z,10.33
2019-03-31T16:45:00.370Z,10.20
2019-03-31T16:47:30.277Z,10.20
2019-03-31T16:50:00.347Z,10.00
2019-03-31T16:52:30.483Z,10.90
2019-03-31T16:55:00.498Z,10.67
2019-03-31T16:57:30.477Z,10.67
2019-03-31T17:00:00.426Z,10.90
2019-03-31T17:02:30.365Z,10.67
2019-03-31T17:05:00.407Z,11.43
2019-03-31T17:07:30.811Z,18.23
2019-03-31T17:10:00.892Z,21.77
2019-03-31T17:12:30.903Z,19.63
2019-03-31T17:15:01.269Z,21.10
2019-03-31T17:17:31.600Z,23.33
2019-03-31T17:20:01.518Z,23.90
2019-03-31T17:22:32.836Z,23.80
2019-03-31T17:25:05.758Z,26.57
2019-03-31T17:27:36.132Z,27.60
2019-03-31T17:30:07.004Z,28.03
2019-03-31T17:32:37.126Z,29.70
2019-03-31T17:35:07.969Z,28.03
2019-03-31T17:37:38.263Z,26.90
2019-03-31T17:40:09.738Z,29.57
2019-03-31T17:42:39.806Z,30.63
2019-03-31T17:45:09.823Z,30.60
2019-03-31T17:47:39.756Z,31.73
2019-03-31T17:50:09.952Z,30.10
2019-03-31T17:52:39.885Z,30.97
2019-03-31T17:55:10.017Z,29.93
2019-03-31T17:57:42.611Z,29.97
2019-03-31T18:00:13.029Z,31.07
2019-03-31T18:02:44.462Z,31.10
2019-03-31T18:05:15.133Z,29.17
2019-03-31T18:07:45.145Z,30.13
2019-03-31T18:10:21.264Z,31.23
2019-03-31T18:12:48.542Z,29.70
2019-03-31T18:15:18.611Z,32.27
2019-03-31T18:17:48.572Z,29.70
2019-03-31T18:20:18.437Z,29.87
2019-03-31T18:22:48.379Z,30.10
2019-03-31T18:25:18.240Z,29.97
2019-03-31T18:27:48.127Z,28.67
2019-03-31T18:30:18.843Z,29.00
2019-03-31T18:32:48.756Z,28.00
2019-03-31T18:35:18.633Z,28.60
2019-03-31T18:37:50.328Z,27.23
2019-03-31T18:40:34.061Z,27.57
2019-03-31T18:42:51.825Z,27.60
2019-03-31T18:45:21.787Z,27.97
2019-03-31T18:47:51.729Z,26.83
2019-03-31T18:50:21.682Z,28.10
2019-03-31T18:52:51.629Z,27.00
2019-03-31T18:55:23.224Z,28.80
2019-03-31T18:58:11.427Z,27.80
2019-03-31T19:00:42.920Z,28.63
2019-03-31T19:03:14.441Z,28.60
2019-03-31T19:05:45.943Z,29.90
2019-03-31T19:08:33.991Z,29.07
2019-03-31T19:11:21.979Z,27.23
2019-03-31T19:14:06.688Z,28.30
2019-03-31T19:16:50.047Z,28.33
2019-03-31T19:19:21.640Z,27.00
2019-03-31T19:21:59.029Z,26.67
2019-03-31T19:24:33.521Z,24.83
2019-03-31T19:27:05.137Z,25.77
2019-03-31T19:29:51.957Z,25.33
2019-03-31T19:32:39.528Z,24.50
2019-03-31T19:35:23.643Z,24.00
2019-03-31T19:37:55.154Z,23.07
2019-03-31T19:40:41.762Z,24.07
2019-03-31T19:43:20.241Z,24.63
2019-03-31T19:45:51.913Z,23.77
2019-03-31T19:48:41.559Z,24.17
2019-03-31T19:51:31.401Z,23.50
2019-03-31T19:54:08.863Z,22.93
2019-03-31T19:56:40.393Z,23.20
2019-03-31T19:59:17.782Z,24.97
2019-03-31T20:01:58.160Z,24.87
2019-03-31T20:04:32.657Z,23.30
2019-03-31T20:07:10.232Z,23.50
2019-03-31T20:09:47.629Z,24.93
2019-03-31T20:12:35.437Z,24.63
2019-03-31T20:15:09.472Z,23.93
2019-03-31T20:17:44.770Z,24.47
2019-03-31T20:20:25.762Z,24.27
2019-03-31T20:23:14.695Z,24.20
2019-03-31T20:25:47.218Z,24.53
2019-03-31T20:28:33.163Z,25.83
2019-03-31T20:31:05.671Z,25.20
2019-03-31T20:33:40.478Z,23.83
2019-03-31T20:36:15.261Z,25.43
2019-03-31T20:38:56.933Z,26.00
2019-03-31T20:41:28.782Z,25.30
2019-03-31T20:43:58.742Z,24.77
2019-03-31T20:46:29.018Z,25.83
2019-03-31T20:48:58.967Z,24.67
2019-03-31T20:51:30.702Z,25.17
2019-03-31T20:54:01.476Z,25.73
2019-03-31T20:56:32.179Z,25.50
2019-03-31T20:59:02.197Z,24.80
2019-03-31T21:01:32.780Z,25.47
2019-03-31T21:04:03.841Z,26.27
2019-03-31T21:06:34.409Z,25.60
2019-03-31T21:09:07.241Z,25.63
2019-03-31T21:11:37.242Z,26.03
2019-03-31T21:14:07.227Z,25.67
2019-03-31T21:16:37.178Z,24.90
2019-03-31T21:19:07.197Z,24.90
2019-03-31T21:21:38.130Z,26.00
2019-03-31T21:24:08.123Z,25.73
2019-03-31T21:26:38.027Z,23.93
2019-03-31T21:29:08.045Z,24.90
2019-03-31T21:31:38.421Z,24.90
2019-03-31T21:34:08.961Z,25.17
2019-03-31T21:36:39.599Z,23.73
2019-03-31T21:39:09.817Z,25.20
2019-03-31T21:41:39.752Z,25.70
2019-03-31T21:44:09.767Z,25.60
2019-03-31T21:46:39.689Z,25.53
2019-03-31T21:49:10.561Z,26.43
2019-03-31T21:51:40.583Z,25.20
2019-03-31T21:54:10.536Z,25.83
2019-03-31T21:56:40.473Z,26.30
2019-03-31T21:59:10.387Z,26.27
2019-03-31T22:01:40.456Z,26.87
2019-03-31T22:04:10.343Z,25.57
2019-03-31T22:06:40.276Z,25.80
2019-03-31T22:09:11.062Z,26.47
2019-03-31T22:11:40.983Z,26.27
2019-03-31T22:14:10.995Z,27.57
2019-03-31T22:16:40.868Z,26.30
2019-03-31T22:19:10.785Z,25.97
2019-03-31T22:21:40.689Z,27.87
2019-03-31T22:24:10.671Z,27.97
2019-03-31T22:26:40.649Z,27.57
2019-03-31T22:29:10.595Z,26.70
2019-03-31T22:31:40.538Z,26.70
2019-03-31T22:34:10.407Z,28.40
2019-03-31T22:36:40.276Z,28.00
2019-03-31T22:39:10.304Z,28.13
2019-03-31T22:41:40.171Z,28.17
2019-03-31T22:44:10.020Z,27.90
2019-03-31T22:46:53.449Z,27.83
2019-03-31T22:49:11.618Z,29.77
2019-03-31T22:51:41.487Z,27.43
2019-03-31T22:54:11.433Z,26.67
2019-03-31T22:56:41.371Z,27.23
2019-03-31T22:59:11.344Z,27.97
2019-03-31T23:01:41.273Z,28.50
2019-03-31T23:04:11.163Z,29.43
2019-03-31T23:06:41.002Z,28.37
2019-03-31T23:09:10.875Z,28.63
2019-03-31T23:11:40.853Z,28.77
2019-03-31T23:14:10.768Z,28.17
2019-03-31T23:16:40.622Z,28.13
2019-03-31T23:19:10.502Z,28.73
2019-03-31T23:21:40.375Z,29.00
2019-03-31T23:24:10.321Z,28.20
2019-03-31T23:26:41.042Z,31.13
2019-03-31T23:29:12.843Z,28.13
2019-03-31T23:31:42.958Z,28.37
2019-03-31T23:34:12.917Z,28.87
2019-03-31T23:36:42.776Z,28.07
2019-03-31T23:39:12.739Z,29.03
2019-03-31T23:41:42.707Z,29.33
2019-03-31T23:44:12.669Z,29.03
2019-03-31T23:46:42.612Z,28.80
2019-03-31T23:49:12.559Z,27.60
2019-03-31T23:51:42.494Z,28.87
2019-03-31T23:54:12.358Z,28.33
2019-03-31T23:56:42.309Z,27.87
2019-03-31T23:59:12.252Z,28.40
